createdAt,value
2023-03-13T00:01:45.521Z,100159.94
2023-03-13T00:04:12.752Z,100165.50
2023-03-13T00:06:40.715Z,100162.03
2023-03-13T00:09:10.966Z,100155.66
2023-03-13T00:11:38.269Z,100160.88
2023-03-13T00:14:06.637Z,100162.16
2023-03-13T00:16:35.684Z,100154.16
2023-03-13T00:19:03.518Z,100157.25
2023-03-13T00:21:31.240Z,100164.19
2023-03-13T00:24:00.524Z,100150.41
2023-03-13T00:26:29.362Z,100147.59
2023-03-13T00:28:57.330Z,100154.53
2023-03-13T00:31:28.319Z,100149.78
2023-03-13T00:34:02.779Z,100151.41
2023-03-13T00:36:36.318Z,100143.50
2023-03-13T00:39:06.287Z,100141.41
2023-03-13T00:41:37.456Z,100140.94
2023-03-13T00:44:05.546Z,100134.63
2023-03-13T00:46:32.684Z,100142.50
2023-03-13T00:48:59.562Z,100128.09
2023-03-13T00:51:28.083Z,100126.84
2023-03-13T00:53:59.936Z,100134.63
2023-03-13T00:56:28.188Z,100122.16
2023-03-13T00:58:55.186Z,100114.66
2023-03-13T01:01:25.177Z,100104.22
2023-03-13T01:03:59.308Z,100120.66
2023-03-13T01:06:29.932Z,100120.88
2023-03-13T01:08:59.538Z,100129.69
2023-03-13T01:11:31.390Z,100106.00
2023-03-13T01:14:02.240Z,100118.31
2023-03-13T01:16:32.300Z,100112.47
2023-03-13T01:19:06.957Z,100109.00
2023-03-13T01:21:34.346Z,100106.91
2023-03-13T01:24:01.668Z,100101.56
2023-03-13T01:26:29.414Z,100107.97
2023-03-13T01:28:56.567Z,100099.38
2023-03-13T01:31:30.908Z,100106.09
2023-03-13T01:34:02.226Z,100106.44
2023-03-13T01:36:29.859Z,100106.22
2023-03-13T01:39:00.582Z,100115.59
2023-03-13T01:41:30.566Z,100111.88
2023-03-13T01:43:58.718Z,100095.88
2023-03-13T01:46:31.864Z,100104.91
2023-03-13T01:49:34.514Z,100092.63
2023-03-13T01:52:20.884Z,100088.09
2023-03-13T01:55:02.374Z,100089.16
2023-03-13T01:57:45.831Z,100076.63
2023-03-13T02:00:31.017Z,100078.72
2023-03-13T02:03:06.211Z,100080.09
2023-03-13T02:05:35.767Z,100072.56
2023-03-13T02:08:19.504Z,100080.34
2023-03-13T02:11:24.255Z,100076.63
2023-03-13T02:13:53.710Z,100072.22
2023-03-13T02:16:22.062Z,100065.06
2023-03-13T02:18:50.010Z,100043.22
2023-03-13T02:21:45.094Z,100037.66
2023-03-13T02:24:54.882Z,100043.53
2023-03-13T02:27:22.400Z,100038.44
2023-03-13T02:29:49.772Z,100035.53
2023-03-13T02:32:17.402Z,100035.88
2023-03-13T02:34:46.478Z,100035.28
2023-03-13T02:37:15.487Z,100036.09
2023-03-13T02:39:48.373Z,100035.88
2023-03-13T02:42:18.015Z,100033.69
2023-03-13T02:44:47.765Z,100025.75
2023-03-13T02:47:23.821Z,100035.69
2023-03-13T02:49:51.800Z,100022.28
2023-03-13T02:52:26.118Z,100023.88
2023-03-13T02:55:06.469Z,100010.88
2023-03-13T02:57:35.323Z,99998.31
2023-03-13T03:00:06.414Z,100002.53
2023-03-13T03:02:34.840Z,99990.06
2023-03-13T03:05:02.085Z,99987.97
2023-03-13T03:07:29.991Z,99974.13
2023-03-13T03:09:57.115Z,99992.88
2023-03-13T03:12:24.269Z,99996.13
2023-03-13T03:14:51.255Z,99972.66
2023-03-13T03:17:18.917Z,99978.31
2023-03-13T03:19:45.973Z,99967.13
2023-03-13T03:22:13.361Z,99958.88
2023-03-13T03:24:40.355Z,99970.94
2023-03-13T03:27:07.316Z,99965.09
2023-03-13T03:29:40.452Z,99966.22
2023-03-13T03:32:07.893Z,99966.47
2023-03-13T03:34:34.931Z,99949.31
2023-03-13T03:37:02.668Z,99963.59
2023-03-13T03:39:29.912Z,99951.06
2023-03-13T03:41:56.909Z,99945.72
2023-03-13T03:44:24.663Z,99947.34
2023-03-13T03:46:56.621Z,99952.72
2023-03-13T03:49:25.733Z,99943.66
2023-03-13T03:51:53.317Z,99932.69
2023-03-13T03:54:26.527Z,99932.19
2023-03-13T03:56:54.209Z,99924.16
2023-03-13T03:59:21.698Z,99922.78
2023-03-13T04:01:55.707Z,99916.41
2023-03-13T04:04:25.190Z,99912.69
2023-03-13T04:06:58.773Z,99907.63
2023-03-13T04:09:29.886Z,99909.75
2023-03-13T04:11:58.382Z,99899.63
2023-03-13T04:14:25.659Z,99896.97
2023-03-13T04:16:53.326Z,99897.56
2023-03-13T04:19:20.273Z,99896.75
2023-03-13T04:21:47.332Z,99892.53
2023-03-13T04:24:17.697Z,99890.72
2023-03-13T04:26:45.768Z,99882.16
2023-03-13T04:29:13.786Z,99881.34
2023-03-13T04:32:02.256Z,99877.88
2023-03-13T04:34:42.737Z,99869.03
2023-03-13T04:37:38.901Z,99870.16
2023-03-13T04:40:44.250Z,99856.50
2023-03-13T04:43:22.721Z,99859.22
2023-03-13T04:46:12.539Z,99850.66
2023-03-13T04:49:03.768Z,99853.88
2023-03-13T04:51:53.766Z,99840.50
2023-03-13T04:54:30.233Z,99833.50
2023-03-13T04:57:07.312Z,99837.75
2023-03-13T05:00:06.720Z,99828.47
2023-03-13T05:02:43.758Z,99829.81
2023-03-13T05:05:49.318Z,99834.63
2023-03-13T05:08:36.222Z,99819.41
2023-03-13T05:11:24.373Z,99815.66
2023-03-13T05:14:04.386Z,99805.78
2023-03-13T05:16:40.857Z,99796.72
2023-03-13T05:19:27.343Z,99800.19
2023-03-13T05:22:20.336Z,99785.72
2023-03-13T05:24:56.780Z,99774.25
2023-03-13T05:27:42.069Z,99771.88
2023-03-13T05:30:29.553Z,99771.31
2023-03-13T05:33:15.437Z,99776.72
2023-03-13T05:35:54.888Z,99761.19
2023-03-13T05:38:45.094Z,99760.88
2023-03-13T05:41:19.700Z,99759.78
2023-03-13T05:44:01.486Z,99739.97
2023-03-13T05:46:50.839Z,99746.13
2023-03-13T05:49:42.066Z,99734.63
2023-03-13T05:52:33.222Z,99723.66
2023-03-13T05:55:29.406Z,99735.94
2023-03-13T05:58:16.907Z,99714.59
2023-03-13T06:01:00.393Z,99704.94
2023-03-13T06:03:56.669Z,99709.50
2023-03-13T06:06:25.177Z,99702.84
2023-03-13T06:08:55.315Z,99702.00
2023-03-13T06:11:25.428Z,99695.84
2023-03-13T06:13:53.225Z,99697.47
2023-03-13T06:16:29.012Z,99691.06
2023-03-13T06:19:11.952Z,99691.88
2023-03-13T06:21:39.399Z,99698.31
2023-03-13T06:24:07.017Z,99689.78
2023-03-13T06:26:34.142Z,99684.47
2023-03-13T06:29:01.130Z,99667.59
2023-03-13T06:31:28.198Z,99668.44
2023-03-13T06:33:55.893Z,99661.00
2023-03-13T06:36:24.212Z,99670.56
2023-03-13T06:38:51.805Z,99654.00
2023-03-13T06:41:19.220Z,99645.44
2023-03-13T06:43:46.230Z,99636.63
2023-03-13T06:46:22.641Z,99635.81
2023-03-13T06:48:50.389Z,99621.38
2023-03-13T06:51:20.999Z,99621.09
2023-03-13T06:53:49.081Z,99622.44
2023-03-13T06:56:16.085Z,99607.72
2023-03-13T06:58:43.150Z,99612.03
2023-03-13T07:01:13.047Z,99606.19
2023-03-13T07:03:41.485Z,99598.97
2023-03-13T07:06:09.992Z,99589.63
2023-03-13T07:08:37.963Z,99595.78
2023-03-13T07:11:09.474Z,99584.84
2023-03-13T07:13:36.847Z,99578.44
2023-03-13T07:16:06.996Z,99572.56
2023-03-13T07:18:35.137Z,99573.69
2023-03-13T07:21:05.406Z,99568.09
2023-03-13T07:23:35.422Z,99585.22
2023-03-13T07:26:08.837Z,99584.66
2023-03-13T07:28:37.782Z,99580.97
2023-03-13T07:31:17.684Z,99563.06
2023-03-13T07:33:46.128Z,99577.50
2023-03-13T07:36:15.521Z,99571.34
2023-03-13T07:38:43.841Z,99562.28
2023-03-13T07:41:13.486Z,99563.38
2023-03-13T07:43:40.768Z,99558.53
2023-03-13T07:46:12.083Z,99558.53
2023-03-13T07:48:42.257Z,99551.03
2023-03-13T07:51:33.538Z,99535.56
2023-03-13T07:54:07.820Z,99531.53
2023-03-13T07:56:34.916Z,99529.69
2023-03-13T07:59:01.980Z,99519.00
2023-03-13T08:01:30.951Z,99523.81
2023-03-13T08:04:01.446Z,99521.97
2023-03-13T08:06:33.968Z,99519.84
2023-03-13T08:09:02.060Z,99500.59
2023-03-13T08:11:29.393Z,99496.59
2023-03-13T08:13:57.776Z,99509.44
2023-03-13T08:16:29.708Z,99511.03
2023-03-13T08:18:58.734Z,99503.03
2023-03-13T08:21:31.279Z,99488.59
2023-03-13T08:24:03.420Z,99484.06
2023-03-13T08:26:31.826Z,99495.56
2023-03-13T08:29:01.811Z,99489.94
2023-03-13T08:31:50.290Z,99471.78
2023-03-13T08:34:17.961Z,99475.78
2023-03-13T08:36:46.075Z,99462.47
2023-03-13T08:39:16.864Z,99476.09
2023-03-13T08:41:44.324Z,99464.59
2023-03-13T08:44:15.152Z,99472.91
2023-03-13T08:46:43.993Z,99476.38
2023-03-13T08:49:12.331Z,99459.28
2023-03-13T08:51:40.354Z,99461.94
2023-03-13T08:54:07.644Z,99460.88
2023-03-13T08:56:35.034Z,99434.13
2023-03-13T08:59:05.195Z,99460.88
2023-03-13T09:01:34.926Z,99446.97
2023-03-13T09:04:04.536Z,99441.38
2023-03-13T09:07:26.630Z,99447.81
2023-03-13T09:09:55.687Z,99432.28
2023-03-13T09:12:30.704Z,99417.56
2023-03-13T09:14:57.902Z,99433.09
2023-03-13T09:20:35.040Z,99412.22
2023-03-13T09:23:02.195Z,99416.75
2023-03-13T09:25:29.245Z,99417.00
2023-03-13T09:27:56.537Z,99401.75
2023-03-13T09:36:33.799Z,99418.06
2023-03-13T09:39:01.355Z,99408.44
2023-03-13T09:41:47.733Z,99422.88
2023-03-13T09:44:35.786Z,99423.41
2023-03-13T09:47:17.934Z,99417.25
2023-03-13T09:49:59.290Z,99424.75
2023-03-13T09:52:32.009Z,99424.75
2023-03-13T09:55:22.285Z,99421.25
2023-03-13T09:57:57.145Z,99407.06
2023-03-13T10:00:35.336Z,99383.25
2023-03-13T10:03:25.405Z,99392.88
2023-03-13T10:06:02.449Z,99391.53
2023-03-13T10:08:35.277Z,99394.19
2023-03-13T10:11:17.856Z,99406.75
2023-03-13T10:14:44.412Z,99409.38
2023-03-13T10:17:30.556Z,99400.56
2023-03-13T10:20:09.183Z,99393.63
2023-03-13T10:22:37.950Z,99386.94
2023-03-13T10:25:35.717Z,99380.53
2023-03-13T10:28:02.854Z,99400.88
2023-03-13T10:30:34.860Z,99394.44
2023-03-13T10:33:27.541Z,99365.78
2023-03-13T10:36:13.963Z,99366.53
2023-03-13T10:38:51.013Z,99386.59
2023-03-13T10:41:28.455Z,99380.44
2023-03-13T10:44:04.469Z,99371.03
2023-03-13T10:46:35.236Z,99367.78
2023-03-13T10:49:05.112Z,99356.53
2023-03-13T10:51:40.501Z,99355.34
2023-03-13T10:54:37.409Z,99350.19
2023-03-13T10:57:17.846Z,99372.63
2023-03-13T10:59:48.608Z,99347.94
2023-03-13T11:02:35.833Z,99341.91
2023-03-13T11:05:23.695Z,99343.94
2023-03-13T11:07:52.404Z,99349.09
2023-03-13T11:10:30.136Z,99339.06
2023-03-13T11:12:58.969Z,99326.38
2023-03-13T11:16:20.525Z,99327.59
2023-03-13T11:19:20.303Z,99320.72
2023-03-13T11:22:14.611Z,99318.56
2023-03-13T11:25:12.782Z,99301.09
2023-03-13T11:27:58.689Z,99294.31
2023-03-13T11:31:04.088Z,99294.88
2023-03-13T11:33:40.923Z,99293.22
2023-03-13T11:36:19.384Z,99310.91
2023-03-13T11:39:02.686Z,99295.59
2023-03-13T11:42:09.973Z,99277.66
2023-03-13T11:45:32.771Z,99289.25
2023-03-13T11:48:19.599Z,99272.50
2023-03-13T11:51:20.217Z,99286.41
2023-03-13T11:54:12.349Z,99300.78
2023-03-13T11:56:44.494Z,99286.50
2023-03-13T11:59:32.460Z,99282.59
2023-03-13T12:02:14.765Z,99292.09
2023-03-13T12:04:51.804Z,99295.88
2023-03-13T12:07:41.357Z,99261.94
2023-03-13T12:10:33.714Z,99278.13
2023-03-13T12:13:17.629Z,99263.53
2023-03-13T12:15:49.648Z,99266.41
2023-03-13T12:18:31.842Z,99266.78
2023-03-13T12:21:23.648Z,99272.22
2023-03-13T12:24:30.475Z,99261.50
2023-03-13T12:27:19.121Z,99274.72
2023-03-13T12:30:06.178Z,99263.25
2023-03-13T12:33:01.780Z,99270.19
2023-03-13T12:35:33.374Z,99259.19
2023-03-13T12:38:16.224Z,99243.91
2023-03-13T12:41:30.768Z,99246.28
2023-03-13T12:44:08.343Z,99251.78
2023-03-13T12:46:47.627Z,99237.34
2023-03-13T12:49:36.057Z,99223.47
2023-03-13T12:52:08.959Z,99229.66
2023-03-13T12:55:06.662Z,99223.38
2023-03-13T12:58:17.024Z,99231.84
2023-03-13T13:00:46.354Z,99196.34
2023-03-13T13:03:36.264Z,99217.25
2023-03-13T13:06:16.824Z,99213.78
2023-03-13T13:09:02.769Z,99197.91
2023-03-13T13:11:38.753Z,99199.31
2023-03-13T13:14:17.728Z,99190.31
2023-03-13T13:16:52.236Z,99190.44
2023-03-13T13:19:25.302Z,99174.72
2023-03-13T13:22:39.117Z,99192.38
2023-03-13T13:25:18.400Z,99195.69
2023-03-13T13:27:47.036Z,99184.59
2023-03-13T13:30:20.024Z,99179.66
2023-03-13T13:33:29.054Z,99181.84
2023-03-13T13:36:21.227Z,99157.69
2023-03-13T13:38:48.890Z,99178.59
2023-03-13T13:41:15.848Z,99162.91
2023-03-13T13:43:49.319Z,99164.16
2023-03-13T13:46:25.276Z,99181.59
2023-03-13T13:49:08.221Z,99170.94
2023-03-13T13:51:44.143Z,99153.78
2023-03-13T13:54:45.592Z,99156.91
2023-03-13T13:57:44.064Z,99169.06
2023-03-13T14:00:24.327Z,99170.59
2023-03-13T14:02:57.153Z,99170.06
2023-03-13T14:05:30.768Z,99169.59
2023-03-13T14:08:08.428Z,99166.50
2023-03-13T14:10:46.673Z,99157.19
2023-03-13T14:13:22.323Z,99165.56
2023-03-13T14:15:53.746Z,99162.09
2023-03-13T14:18:31.292Z,99157.03
2023-03-13T14:21:03.431Z,99159.56
2023-03-13T14:23:49.048Z,99171.34
2023-03-13T14:26:28.906Z,99155.84
2023-03-13T14:29:02.881Z,99168.88
2023-03-13T14:31:34.722Z,99176.44
2023-03-13T14:34:12.170Z,99166.00
2023-03-13T14:37:16.870Z,99154.56
2023-03-13T14:39:46.338Z,99147.34
2023-03-13T14:42:18.608Z,99150.41
2023-03-13T14:44:50.028Z,99147.44
2023-03-13T14:47:28.786Z,99137.00
2023-03-13T14:50:00.258Z,99147.09
2023-03-13T14:52:30.389Z,99137.66
2023-03-13T14:55:02.310Z,99137.34
2023-03-13T14:57:30.190Z,99165.91
2023-03-13T15:00:33.843Z,99144.53
2023-03-13T15:03:21.414Z,99132.34
2023-03-13T15:05:50.730Z,99142.13
2023-03-13T15:08:23.712Z,99132.59
2023-03-13T15:10:51.068Z,99117.88
2023-03-13T15:13:34.167Z,99118.09
2023-03-13T15:16:02.888Z,99111.88
2023-03-13T15:18:33.103Z,99106.34
2023-03-13T15:21:28.537Z,99105.91
2023-03-13T15:24:14.153Z,99120.22
2023-03-13T15:26:41.307Z,99099.56
2023-03-13T15:29:11.097Z,99104.75
2023-03-13T15:31:39.681Z,99090.22
2023-03-13T15:34:13.197Z,99108.81
2023-03-13T15:36:41.607Z,99083.28
2023-03-13T15:39:19.379Z,99078.66
2023-03-13T15:41:46.432Z,99070.84
2023-03-13T15:44:13.789Z,99085.84
2023-03-13T15:46:40.848Z,99078.44
2023-03-13T15:49:12.919Z,99066.72
2023-03-13T15:51:39.899Z,99062.53
2023-03-13T15:54:06.982Z,99071.53
2023-03-13T15:56:38.777Z,99072.03
2023-03-13T15:59:12.420Z,99069.13
2023-03-13T16:01:40.136Z,99053.66
2023-03-13T16:04:07.728Z,99050.53
2023-03-13T16:06:34.656Z,99058.72
2023-03-13T16:09:05.716Z,99040.59
2023-03-13T16:11:33.682Z,99043.81
2023-03-13T16:14:00.834Z,99044.66
2023-03-13T16:16:31.528Z,99049.28
2023-03-13T16:19:00.489Z,99032.44
2023-03-13T16:21:34.373Z,99021.13
2023-03-13T16:24:01.619Z,99018.59
2023-03-13T16:26:31.587Z,99009.09
2023-03-13T16:28:58.925Z,99009.59
2023-03-13T16:31:31.961Z,99000.84
2023-03-13T16:34:00.776Z,98993.22
2023-03-13T16:36:31.251Z,99000.38
2023-03-13T16:39:10.979Z,99001.81
2023-03-13T16:41:37.902Z,99002.78
2023-03-13T16:44:04.947Z,99003.75
2023-03-13T16:46:41.058Z,98996.28
2023-03-13T16:49:14.447Z,99001.69
2023-03-13T16:51:42.293Z,98988.19
2023-03-13T16:54:11.781Z,98979.91
2023-03-13T16:56:43.054Z,98979.47
2023-03-13T16:59:17.922Z,98980.72
2023-03-13T17:01:46.979Z,98980.91
2023-03-13T17:04:14.138Z,98975.34
2023-03-13T17:06:44.555Z,98970.72
2023-03-13T17:09:17.044Z,98967.69
2023-03-13T17:11:44.680Z,98968.03
2023-03-13T17:14:13.331Z,98974.38
2023-03-13T17:16:44.842Z,98971.53
2023-03-13T17:19:16.890Z,98978.06
2023-03-13T17:21:43.855Z,98969.47
2023-03-13T17:24:10.880Z,98963.44
2023-03-13T17:26:39.821Z,98975.34
2023-03-13T17:29:07.809Z,98991.56
2023-03-13T17:31:38.406Z,98990.78
2023-03-13T17:34:06.714Z,98990.63
2023-03-13T17:36:35.297Z,98988.25
2023-03-13T17:39:08.809Z,98985.22
2023-03-13T17:41:36.184Z,98987.47
2023-03-13T17:44:07.572Z,98991.13
2023-03-13T17:46:44.596Z,98994.44
2023-03-13T17:49:17.275Z,98985.03
2023-03-13T17:51:46.512Z,98988.84
2023-03-13T17:54:15.678Z,98987.28
2023-03-13T17:56:44.219Z,98986.00
2023-03-13T17:59:17.407Z,98983.63
2023-03-13T18:01:45.046Z,98969.16
2023-03-13T18:04:12.122Z,98991.88
2023-03-13T18:06:42.925Z,98976.78
2023-03-13T18:09:22.332Z,98960.75
2023-03-13T18:11:50.027Z,98980.59
2023-03-13T18:14:17.070Z,98965.66
2023-03-13T18:16:48.007Z,98983.44
2023-03-13T18:19:25.044Z,98973.75
2023-03-13T18:21:54.682Z,98964.72
2023-03-13T18:24:22.105Z,98950.88
2023-03-13T18:26:50.302Z,98952.00
2023-03-13T18:29:26.916Z,98946.75
2023-03-13T18:31:55.453Z,98939.47
2023-03-13T18:34:23.347Z,98945.00
2023-03-13T18:36:51.477Z,98950.56
2023-03-13T18:39:19.902Z,98941.84
2023-03-13T18:41:49.185Z,98953.44
2023-03-13T18:44:18.837Z,98947.56
2023-03-13T18:46:45.912Z,98957.25
2023-03-13T18:49:21.286Z,98931.84
2023-03-13T18:51:50.061Z,98927.84
2023-03-13T18:54:17.355Z,98924.84
2023-03-13T18:59:36.394Z,98922.47
2023-03-13T19:02:05.380Z,98943.91
2023-03-13T19:04:32.475Z,98924.69
2023-03-13T19:06:59.362Z,98935.16
2023-03-13T19:09:42.679Z,98920.72
2023-03-13T19:12:12.409Z,98907.53
2023-03-13T19:14:39.488Z,98912.94
2023-03-13T19:17:29.702Z,98922.47
2023-03-13T19:19:59.558Z,98908.50
2023-03-13T19:22:27.165Z,98899.88
2023-03-13T19:24:54.244Z,98898.75
2023-03-13T19:27:21.150Z,98900.66
2023-03-13T19:29:48.177Z,98899.25
2023-03-13T19:32:17.405Z,98883.22
2023-03-13T19:34:44.616Z,98876.06
2023-03-13T19:37:14.189Z,98889.88
2023-03-13T19:39:42.029Z,98885.28
2023-03-13T19:42:09.232Z,98889.41
2023-03-13T19:44:37.203Z,98885.13
2023-03-13T19:47:05.238Z,98897.50
2023-03-13T19:49:32.322Z,98875.75
2023-03-13T19:52:00.039Z,98875.09
2023-03-13T19:54:27.090Z,98860.03
2023-03-13T19:56:53.968Z,98881.94
2023-03-13T19:59:24.103Z,98877.97
2023-03-13T20:01:51.125Z,98893.03
2023-03-13T20:04:18.382Z,98890.34
2023-03-13T20:06:45.739Z,98887.97
2023-03-13T20:09:16.443Z,98894.63
2023-03-13T20:11:44.474Z,98885.09
2023-03-13T20:14:11.473Z,98869.38
2023-03-13T20:16:40.260Z,98865.59
2023-03-13T20:19:07.472Z,98866.22
2023-03-13T20:21:37.174Z,98850.19
2023-03-13T20:24:04.532Z,98863.84
2023-03-13T20:26:32.096Z,98860.81
2023-03-13T20:28:59.052Z,98857.63
2023-03-13T20:31:31.662Z,98845.25
2023-03-13T20:33:59.534Z,98840.50
2023-03-13T20:36:27.712Z,98857.00
2023-03-13T20:38:54.705Z,98849.69
2023-03-13T20:41:25.145Z,98846.53
2023-03-13T20:43:54.057Z,98827.97
2023-03-13T20:46:21.598Z,98823.50
2023-03-13T20:48:49.272Z,98827.47
2023-03-13T20:51:16.382Z,98827.97
2023-03-13T20:53:43.908Z,98841.59
2023-03-13T20:56:11.738Z,98853.19
2023-03-13T20:58:39.530Z,98833.31
2023-03-13T21:01:08.055Z,98847.00
2023-03-13T21:03:36.237Z,98839.69
2023-03-13T21:06:15.743Z,98840.19
2023-03-13T21:08:44.196Z,98816.03
2023-03-13T21:11:13.275Z,98816.03
2023-03-13T21:13:40.221Z,98819.50
2023-03-13T21:16:07.683Z,98830.81
2023-03-13T21:18:34.680Z,98827.97
2023-03-13T21:21:14.829Z,98825.41
2023-03-13T21:23:42.071Z,98839.06
2023-03-13T21:26:09.546Z,98817.16
2023-03-13T21:28:36.546Z,98834.16
2023-03-13T21:31:18.996Z,98822.41
2023-03-13T21:33:47.184Z,98839.06
2023-03-13T21:36:18.274Z,98860.19
2023-03-13T21:38:45.604Z,98858.44
2023-03-13T21:41:19.157Z,98863.97
2023-03-13T21:43:46.522Z,98860.81
2023-03-13T21:46:16.511Z,98856.69
2023-03-13T21:51:17.719Z,98858.75
2023-03-13T21:53:44.845Z,98853.34
2023-03-13T21:56:15.678Z,98832.88
2023-03-13T21:58:46.911Z,98852.56
2023-03-13T22:01:15.598Z,98835.38
2023-03-13T22:03:42.856Z,98826.50
2023-03-13T22:06:15.526Z,98825.53
2023-03-13T22:08:43.375Z,98822.38
2023-03-13T22:11:10.753Z,98821.56
2023-03-13T22:13:38.573Z,98823.31
2023-03-13T22:16:06.306Z,98829.50
2023-03-13T22:18:33.192Z,98836.47
2023-03-13T22:21:00.952Z,98829.34
2023-03-13T22:23:28.099Z,98828.06
2023-03-13T22:25:59.679Z,98833.16
2023-03-13T22:28:26.882Z,98824.88
2023-03-13T22:30:54.039Z,98820.59
2023-03-13T22:33:21.008Z,98813.31
2023-03-13T22:35:52.212Z,98818.88
2023-03-13T22:38:20.557Z,98813.63
2023-03-13T22:40:49.221Z,98800.47
2023-03-13T22:43:16.171Z,98812.53
2023-03-13T22:45:43.199Z,98827.91
2023-03-13T22:48:10.246Z,98812.34
2023-03-13T22:50:37.257Z,98801.09
2023-03-13T22:53:04.313Z,98811.56
2023-03-13T22:55:33.293Z,98809.50
2023-03-13T22:58:00.806Z,98807.59
2023-03-13T23:00:27.680Z,98802.50
2023-03-13T23:02:54.911Z,98795.53
2023-03-13T23:05:22.037Z,98806.91
2023-03-13T23:07:50.785Z,98809.94
2023-03-13T23:10:20.511Z,98796.28
2023-03-13T23:12:47.447Z,98793.25
2023-03-13T23:15:14.482Z,98801.66
2023-03-13T23:17:41.432Z,98802.28
2023-03-13T23:20:16.097Z,98816.06
2023-03-13T23:22:45.231Z,98801.63
2023-03-13T23:25:13.836Z,98791.78
2023-03-13T23:27:42.596Z,98784.66
2023-03-13T23:30:13.663Z,98777.19
2023-03-13T23:32:44.993Z,98778.00
2023-03-13T23:35:13.054Z,98783.03
2023-03-13T23:37:41.075Z,98780.66
2023-03-13T23:40:10.388Z,98776.53
2023-03-13T23:42:37.813Z,98771.94
2023-03-13T23:45:06.393Z,98782.06
2023-03-13T23:47:33.747Z,98772.88
2023-03-13T23:50:01.308Z,98771.13
2023-03-13T23:52:28.382Z,98763.34
2023-03-13T23:54:55.393Z,98772.84
2023-03-13T23:57:22.332Z,98777.75
2023-03-13T23:59:49.336Z,98770.88
